Home > Products > Valid Products > TAF

000
FTUS44 KMOB 032323
TAFPNS
TAF
KPNS 032323Z 0400/0424 20009KT P6SM SCT200
     FM040300 20006KT P6SM FEW200
     FM041500 28007KT P6SM VCSH SCT050 BKN250
     FM041800 20009KT P6SM SCT035 SCT200 PROB30 0418/0424 4SM TSRA
      BKN025CB=



000
FTUS44 KMOB 032323
TAFPNS
TAF
KPNS 032323Z 0400/0424 20009KT P6SM SCT200
     FM040300 20006KT P6SM FEW200
     FM041500 28007KT P6SM VCSH SCT050 BKN250
     FM041800 20009KT P6SM SCT035 SCT200 PROB30 0418/0424 4SM TSRA
      BKN025CB=



000
FTUS44 KMOB 032323
TAFMOB
TAF
KMOB 032323Z 0400/0424 19011KT P6SM FEW027 SCT200
     FM040300 19006KT P6SM FEW200
     FM041500 26005KT P6SM VCSH SCT050 BKN250
     FM041800 22009KT P6SM SCT035 SCT200 PROB30 0418/0424 4SM TSRA
      BKN025CB=



000
FTUS44 KMOB 032323
TAFMOB
TAF
KMOB 032323Z 0400/0424 19011KT P6SM FEW027 SCT200
     FM040300 19006KT P6SM FEW200
     FM041500 26005KT P6SM VCSH SCT050 BKN250
     FM041800 22009KT P6SM SCT035 SCT200 PROB30 0418/0424 4SM TSRA
      BKN025CB=



000
FTUS44 KMOB 031750
TAFPNS
TAF
KPNS 031750Z 0318/0418 25009KT P6SM FEW040 SCT180
     FM040200 20006KT P6SM FEW050 BKN200
     FM041500 28007KT P6SM VCTS SCT050CB BKN250=



000
FTUS44 KMOB 031750
TAFPNS
TAF
KPNS 031750Z 0318/0418 25009KT P6SM FEW040 SCT180
     FM040200 20006KT P6SM FEW050 BKN200
     FM041500 28007KT P6SM VCTS SCT050CB BKN250=



000
FTUS44 KMOB 031750
TAFMOB
TAF
KMOB 031750Z 0318/0418 VRB05KT P6SM SCT028 BKN035 BKN180
     FM040100 19006KT P6SM FEW050 BKN200
     FM041500 26005KT P6SM VCTS SCT050CB BKN250=



000
FTUS44 KMOB 031750
TAFMOB
TAF
KMOB 031750Z 0318/0418 VRB05KT P6SM SCT028 BKN035 BKN180
     FM040100 19006KT P6SM FEW050 BKN200
     FM041500 26005KT P6SM VCTS SCT050CB BKN250=



000
FTUS44 KMOB 031127
TAFMOB
TAF
KMOB 031127Z 0312/0412 24003KT P6SM FEW060 BKN150
      TEMPO 0312/0313 5SM BR
     FM031600 21011KT P6SM SCT040 BKN200
     FM040100 19006KT P6SM FEW050 BKN200=



000
FTUS44 KMOB 031127
TAFPNS
TAF
KPNS 031127Z 0312/0412 24007KT P6SM FEW025 BKN150
     FM031700 20012G18KT P6SM SCT040 BKN200
     FM040100 20006KT P6SM FEW050 BKN200=



000
FTUS44 KMOB 031127
TAFPNS
TAF
KPNS 031127Z 0312/0412 24007KT P6SM FEW025 BKN150
     FM031700 20012G18KT P6SM SCT040 BKN200
     FM040100 20006KT P6SM FEW050 BKN200=



000
FTUS44 KMOB 031127
TAFMOB
TAF
KMOB 031127Z 0312/0412 24003KT P6SM FEW060 BKN150
      TEMPO 0312/0313 5SM BR
     FM031600 21011KT P6SM SCT040 BKN200
     FM040100 19006KT P6SM FEW050 BKN200=



000
FTUS44 KMOB 030540
TAFPNS
TAF
KPNS 030540Z 0306/0406 22007KT P6SM SCT250
     FM031800 19012KT P6SM SCT040 BKN200
     FM040200 21006KT P6SM FEW050 BKN200=



000
FTUS44 KMOB 030540
TAFMOB
TAF
KMOB 030540Z 0306/0406 20006KT P6SM SCT250
     FM031800 21010KT P6SM SCT040 BKN200
     FM040200 21006KT P6SM FEW050 BKN200=



000
FTUS44 KMOB 030540
TAFMOB
TAF
KMOB 030540Z 0306/0406 20006KT P6SM SCT250
     FM031800 21010KT P6SM SCT040 BKN200
     FM040200 21006KT P6SM FEW050 BKN200=



000
FTUS44 KMOB 030540
TAFPNS
TAF
KPNS 030540Z 0306/0406 22007KT P6SM SCT250
     FM031800 19012KT P6SM SCT040 BKN200
     FM040200 21006KT P6SM FEW050 BKN200=



000
FTUS44 KMOB 030540
TAFMOB
TAF
KMOB 030540Z 0306/0406 20006KT P6SM SCT250
     FM031800 21010KT P6SM SCT040 BKN200
     FM040200 21006KT P6SM FEW050 BKN200=



000
FTUS44 KMOB 030540
TAFMOB
TAF
KMOB 030540Z 0306/0406 20006KT P6SM SCT250
     FM031800 21010KT P6SM SCT040 BKN200
     FM040200 21006KT P6SM FEW050 BKN200=



000
FTUS44 KMOB 030540
TAFPNS
TAF
KPNS 030540Z 0306/0406 22007KT P6SM SCT250
     FM031800 19012KT P6SM SCT040 BKN200
     FM040200 21006KT P6SM FEW050 BKN200=



000
FTUS44 KMOB 030540
TAFPNS
TAF
KPNS 030540Z 0306/0406 22007KT P6SM SCT250
     FM031800 19012KT P6SM SCT040 BKN200
     FM040200 21006KT P6SM FEW050 BKN200=



000
FTUS44 KMOB 022320
TAFMOB
TAF
KMOB 022320Z 0300/0324 21010KT P6SM FEW150 BKN250
     FM030200 19003KT P6SM BKN250
     FM031300 22002KT P6SM VCTS BKN015CB BKN250
     FM031800 21010KT P6SM SCT030 BKN200 PROB30 0320/0324 4SM TSRA
      BKN025CB=



000
FTUS44 KMOB 022320
TAFMOB
TAF
KMOB 022320Z 0300/0324 21010KT P6SM FEW150 BKN250
     FM030200 19003KT P6SM BKN250
     FM031300 22002KT P6SM VCTS BKN015CB BKN250
     FM031800 21010KT P6SM SCT030 BKN200 PROB30 0320/0324 4SM TSRA
      BKN025CB=



000
FTUS44 KMOB 022320
TAFPNS
TAF
KPNS 022320Z 0300/0324 24013KT P6SM BKN250
     FM030300 20004KT P6SM BKN250
     FM031200 23003KT P6SM VCTS BKN015CB BKN250
     FM031800 19013KT P6SM SCT030 BKN200 PROB30 0320/0324 4SM TSRA
      BKN025CB=



000
FTUS44 KMOB 022320
TAFPNS
TAF
KPNS 022320Z 0300/0324 24013KT P6SM BKN250
     FM030300 20004KT P6SM BKN250
     FM031200 23003KT P6SM VCTS BKN015CB BKN250
     FM031800 19013KT P6SM SCT030 BKN200 PROB30 0320/0324 4SM TSRA
      BKN025CB=



000
FTUS44 KMOB 021739
TAFMOB
TAF
KMOB 021739Z 0218/0318 20007KT P6SM FEW019
     FM030000 19006KT P6SM SCT040 SCT100
     FM030200 19003KT P6SM BKN250
     FM031300 22002KT P6SM VCTS BKN015CB BKN250=



000
FTUS44 KMOB 021739
TAFMOB
TAF
KMOB 021739Z 0218/0318 20007KT P6SM FEW019
     FM030000 19006KT P6SM SCT040 SCT100
     FM030200 19003KT P6SM BKN250
     FM031300 22002KT P6SM VCTS BKN015CB BKN250=



000
FTUS44 KMOB 021739
TAFPNS
TAF
KPNS 021739Z 0218/0318 25009KT P6SM SCT110
     FM030000 20008KT P6SM SCT040 SCT100
     FM030300 20004KT P6SM BKN250
     FM031200 23003KT P6SM VCTS BKN015CB BKN250=



000
FTUS44 KMOB 021739
TAFPNS
TAF
KPNS 021739Z 0218/0318 25009KT P6SM SCT110
     FM030000 20008KT P6SM SCT040 SCT100
     FM030300 20004KT P6SM BKN250
     FM031200 23003KT P6SM VCTS BKN015CB BKN250=



000
FTUS44 KMOB 021134
TAFMOB
TAF
KMOB 021134Z 0212/0312 23006KT P6SM VCSH FEW060 SCT120 BKN200
     FM021400 23008KT P6SM VCTS SCT035CB SCT150
     FM030000 19006KT P6SM SCT040 SCT100=



000
FTUS44 KMOB 021134
TAFPNS
TAF
KPNS 021134Z 0212/0312 25007KT P6SM VCSH FEW080 BKN200
     FM021400 25010KT P6SM VCTS SCT035CB SCT150
     FM030000 20008KT P6SM SCT040 SCT100=



000
FTUS44 KMOB 021134
TAFMOB
TAF
KMOB 021134Z 0212/0312 23006KT P6SM VCSH FEW060 SCT120 BKN200
     FM021400 23008KT P6SM VCTS SCT035CB SCT150
     FM030000 19006KT P6SM SCT040 SCT100=



000
FTUS44 KMOB 021134
TAFPNS
TAF
KPNS 021134Z 0212/0312 25007KT P6SM VCSH FEW080 BKN200
     FM021400 25010KT P6SM VCTS SCT035CB SCT150
     FM030000 20008KT P6SM SCT040 SCT100=



000
FTUS44 KMOB 020522
TAFPNS
TAF
KPNS 020522Z 0206/0306 26005KT P6SM SCT150 SCT250
     FM021000 25004KT P6SM VCSH SCT035 SCT150
     FM021400 25010KT P6SM VCTS SCT035CB SCT150
     FM030000 20008KT P6SM SCT040 SCT100=



000
FTUS44 KMOB 020522
TAFMOB
TAF
KMOB 020522Z 0206/0306 21003KT P6SM SCT150 SCT250
     FM021000 23003KT P6SM VCSH SCT035 SCT150
     FM021400 23008KT P6SM VCTS SCT035CB SCT150
     FM030000 19006KT P6SM SCT040 SCT100=



000
FTUS44 KMOB 020522
TAFPNS
TAF
KPNS 020522Z 0206/0306 26005KT P6SM SCT150 SCT250
     FM021000 25004KT P6SM VCSH SCT035 SCT150
     FM021400 25010KT P6SM VCTS SCT035CB SCT150
     FM030000 20008KT P6SM SCT040 SCT100=



000
FTUS44 KMOB 020522
TAFMOB
TAF
KMOB 020522Z 0206/0306 21003KT P6SM SCT150 SCT250
     FM021000 23003KT P6SM VCSH SCT035 SCT150
     FM021400 23008KT P6SM VCTS SCT035CB SCT150
     FM030000 19006KT P6SM SCT040 SCT100=



000
FTUS44 KMOB 012322
TAFMOB
TAF
KMOB 012322Z 0200/0224 24004KT P6SM VCSH SCT030 BKN130
     FM020300 21004KT P6SM SCT050 BKN250
     FM021500 24009KT P6SM SCT040 SCT250=



000
FTUS44 KMOB 012322
TAFPNS
TAF
KPNS 012322Z 0200/0224 24010KT P6SM VCSH SCT030 SCT250
     FM020300 25005KT P6SM SCT035 SCT250
     FM021500 25010KT P6SM SCT040 SCT250=



000
FTUS44 KMOB 012322
TAFPNS
TAF
KPNS 012322Z 0200/0224 24010KT P6SM VCSH SCT030 SCT250
     FM020300 25005KT P6SM SCT035 SCT250
     FM021500 25010KT P6SM SCT040 SCT250=



000
FTUS44 KMOB 012322
TAFMOB
TAF
KMOB 012322Z 0200/0224 24004KT P6SM VCSH SCT030 BKN130
     FM020300 21004KT P6SM SCT050 BKN250
     FM021500 24009KT P6SM SCT040 SCT250=



000
FTUS44 KMOB 012322
TAFPNS
TAF
KPNS 012322Z 0200/0224 24010KT P6SM VCSH SCT030 SCT250
     FM020300 25005KT P6SM SCT035 SCT250
     FM021500 25010KT P6SM SCT040 SCT250=



000
FTUS44 KMOB 012322
TAFMOB
TAF
KMOB 012322Z 0200/0224 24004KT P6SM VCSH SCT030 BKN130
     FM020300 21004KT P6SM SCT050 BKN250
     FM021500 24009KT P6SM SCT040 SCT250=



000
FTUS44 KMOB 012322
TAFPNS
TAF
KPNS 012322Z 0200/0224 24010KT P6SM VCSH SCT030 SCT250
     FM020300 25005KT P6SM SCT035 SCT250
     FM021500 25010KT P6SM SCT040 SCT250=



000
FTUS44 KMOB 012322
TAFMOB
TAF
KMOB 012322Z 0200/0224 24004KT P6SM VCSH SCT030 BKN130
     FM020300 21004KT P6SM SCT050 BKN250
     FM021500 24009KT P6SM SCT040 SCT250=



000
FTUS44 KMOB 012132 CCA
TAFMOB
TAF COR
KMOB 012132Z 0121/0218 22013G20KT P6SM VCTS FEW035CB SCT050 SCT200
     FM012200 27020G35KT 3SM TSRA BKN030CB
     FM012300 24010KT P6SM VCSH BKN050
     FM020100 28003KT P6SM FEW040 SCT250
     FM021500 23009KT P6SM SCT250=



000
FTUS44 KMOB 012132 CCA
TAFMOB
TAF COR
KMOB 012132Z 0121/0218 22013G20KT P6SM VCTS FEW035CB SCT050 SCT200
     FM012200 27020G35KT 3SM TSRA BKN030CB
     FM012300 24010KT P6SM VCSH BKN050
     FM020100 28003KT P6SM FEW040 SCT250
     FM021500 23009KT P6SM SCT250=



000
FTUS44 KMOB 012129 AAA
TAFMOB
TAF AMD
KMOB 012129Z 0121/0218 22013G20KT P6SM VCTS FEW035CB SCT050 SCT200
     FM012200 27020KT 3SM TSRA BKN030CB
     FM012300 24010KT P6SM VCSH BKN050
     FM020100 28003KT P6SM FEW040 SCT250
     FM021500 23009KT P6SM SCT250=



000
FTUS44 KMOB 012129 AAA
TAFMOB
TAF AMD
KMOB 012129Z 0121/0218 22013G20KT P6SM VCTS FEW035CB SCT050 SCT200
     FM012200 27020KT 3SM TSRA BKN030CB
     FM012300 24010KT P6SM VCSH BKN050
     FM020100 28003KT P6SM FEW040 SCT250
     FM021500 23009KT P6SM SCT250=



000
FTUS44 KMOB 011734
TAFMOB
TAF
KMOB 011734Z 0118/0218 22007KT P6SM VCTS FEW020CB FEW120 SCT250
     FM020100 28003KT P6SM FEW040 SCT250
     FM021500 23009KT P6SM SCT250=



000
FTUS44 KMOB 011734
TAFPNS
TAF
KPNS 011734Z 0118/0218 22011G15KT P6SM VCTS FEW035CB FEW120 SCT250
     FM020100 24007KT P6SM FEW040 SCT250
     FM021500 25004KT P6SM SCT250=



000
FTUS44 KMOB 011734
TAFMOB
TAF
KMOB 011734Z 0118/0218 22007KT P6SM VCTS FEW020CB FEW120 SCT250
     FM020100 28003KT P6SM FEW040 SCT250
     FM021500 23009KT P6SM SCT250=



000
FTUS44 KMOB 011734
TAFPNS
TAF
KPNS 011734Z 0118/0218 22011G15KT P6SM VCTS FEW035CB FEW120 SCT250
     FM020100 24007KT P6SM FEW040 SCT250
     FM021500 25004KT P6SM SCT250=



000
FTUS44 KMOB 011734
TAFMOB
TAF
KMOB 011734Z 0118/0218 22007KT P6SM VCTS FEW020CB FEW120 SCT250
     FM020100 28003KT P6SM FEW040 SCT250
     FM021500 23009KT P6SM SCT250=



000
FTUS44 KMOB 011734
TAFPNS
TAF
KPNS 011734Z 0118/0218 22011G15KT P6SM VCTS FEW035CB FEW120 SCT250
     FM020100 24007KT P6SM FEW040 SCT250
     FM021500 25004KT P6SM SCT250=



000
FTUS44 KMOB 011129
TAFMOB
TAF
KMOB 011129Z 0112/0212 00000KT P6SM FEW060 BKN250
     FM011600 22009KT P6SM VCTS SCT035CB BKN250
     FM020100 28003KT P6SM FEW040 BKN250=



000
FTUS44 KMOB 011129
TAFPNS
TAF
KPNS 011129Z 0112/0212 01003KT P6SM FEW050 BKN250
     FM011600 21012KT P6SM VCTS SCT035CB BKN250
     FM020100 24007KT P6SM FEW040 BKN250=



000
FTUS44 KMOB 011129
TAFPNS
TAF
KPNS 011129Z 0112/0212 01003KT P6SM FEW050 BKN250
     FM011600 21012KT P6SM VCTS SCT035CB BKN250
     FM020100 24007KT P6SM FEW040 BKN250=



000
FTUS44 KMOB 011129
TAFMOB
TAF
KMOB 011129Z 0112/0212 00000KT P6SM FEW060 BKN250
     FM011600 22009KT P6SM VCTS SCT035CB BKN250
     FM020100 28003KT P6SM FEW040 BKN250=



000
FTUS44 KMOB 011129
TAFPNS
TAF
KPNS 011129Z 0112/0212 01003KT P6SM FEW050 BKN250
     FM011600 21012KT P6SM VCTS SCT035CB BKN250
     FM020100 24007KT P6SM FEW040 BKN250=



000
FTUS44 KMOB 011129
TAFMOB
TAF
KMOB 011129Z 0112/0212 00000KT P6SM FEW060 BKN250
     FM011600 22009KT P6SM VCTS SCT035CB BKN250
     FM020100 28003KT P6SM FEW040 BKN250=



000
FTUS44 KMOB 011129
TAFPNS
TAF
KPNS 011129Z 0112/0212 01003KT P6SM FEW050 BKN250
     FM011600 21012KT P6SM VCTS SCT035CB BKN250
     FM020100 24007KT P6SM FEW040 BKN250=



000
FTUS44 KMOB 011129
TAFMOB
TAF
KMOB 011129Z 0112/0212 00000KT P6SM FEW060 BKN250
     FM011600 22009KT P6SM VCTS SCT035CB BKN250
     FM020100 28003KT P6SM FEW040 BKN250=



000
FTUS44 KMOB 010522
TAFPNS
TAF
KPNS 010522Z 0106/0206 24004KT P6SM FEW025 BKN150
     FM011600 21012KT P6SM VCTS SCT035CB BKN250 PROB30 0118/0124 3SM
      -TSRA BKN035CB
     FM020000 24007KT P6SM FEW040 BKN250=



000
FTUS44 KMOB 010522
TAFMOB
TAF
KMOB 010522Z 0106/0206 24003KT P6SM FEW025 BKN150
     FM011600 22009KT P6SM VCTS SCT035CB BKN250 PROB30 0118/0124 3SM
      -TSRA BKN035CB
     FM020000 28003KT P6SM FEW040 BKN250=



000
FTUS44 KMOB 010522
TAFPNS
TAF
KPNS 010522Z 0106/0206 24004KT P6SM FEW025 BKN150
     FM011600 21012KT P6SM VCTS SCT035CB BKN250 PROB30 0118/0124 3SM
      -TSRA BKN035CB
     FM020000 24007KT P6SM FEW040 BKN250=



000
FTUS44 KMOB 010522
TAFMOB
TAF
KMOB 010522Z 0106/0206 24003KT P6SM FEW025 BKN150
     FM011600 22009KT P6SM VCTS SCT035CB BKN250 PROB30 0118/0124 3SM
      -TSRA BKN035CB
     FM020000 28003KT P6SM FEW040 BKN250=



000
FTUS44 KMOB 010522
TAFMOB
TAF
KMOB 010522Z 0106/0206 24003KT P6SM FEW025 BKN150
     FM011600 22009KT P6SM VCTS SCT035CB BKN250 PROB30 0118/0124 3SM
      -TSRA BKN035CB
     FM020000 28003KT P6SM FEW040 BKN250=



000
FTUS44 KMOB 010522
TAFPNS
TAF
KPNS 010522Z 0106/0206 24004KT P6SM FEW025 BKN150
     FM011600 21012KT P6SM VCTS SCT035CB BKN250 PROB30 0118/0124 3SM
      -TSRA BKN035CB
     FM020000 24007KT P6SM FEW040 BKN250=



000
FTUS44 KMOB 010522
TAFMOB
TAF
KMOB 010522Z 0106/0206 24003KT P6SM FEW025 BKN150
     FM011600 22009KT P6SM VCTS SCT035CB BKN250 PROB30 0118/0124 3SM
      -TSRA BKN035CB
     FM020000 28003KT P6SM FEW040 BKN250=



000
FTUS44 KMOB 010522
TAFPNS
TAF
KPNS 010522Z 0106/0206 24004KT P6SM FEW025 BKN150
     FM011600 21012KT P6SM VCTS SCT035CB BKN250 PROB30 0118/0124 3SM
      -TSRA BKN035CB
     FM020000 24007KT P6SM FEW040 BKN250=



000
FTUS44 KMOB 010232 AAB
TAFPNS
TAF AMD
KPNS 010232Z 0103/0124 22007KT P6SM SCT030 BKN250
     FM011500 26008KT P6SM VCSH SCT030 BKN150
     FM011800 23010KT P6SM BKN250 PROB30 0118/0122 6SM TS BKN050CB=



000
FTUS44 KMOB 010232 AAB
TAFPNS
TAF AMD
KPNS 010232Z 0103/0124 22007KT P6SM SCT030 BKN250
     FM011500 26008KT P6SM VCSH SCT030 BKN150
     FM011800 23010KT P6SM BKN250 PROB30 0118/0122 6SM TS BKN050CB=



000
FTUS44 KMOB 010230 AAB
TAFMOB
TAF AMD
KMOB 010230Z 0103/0124 17005KT P6SM FEW040 SCT100 BKN250
     FM011000 27003KT P6SM SCT007 BKN250
     FM011800 23009KT P6SM VCTS SCT050CB BKN250=



000
FTUS44 KMOB 010230 AAB
TAFMOB
TAF AMD
KMOB 010230Z 0103/0124 17005KT P6SM FEW040 SCT100 BKN250
     FM011000 27003KT P6SM SCT007 BKN250
     FM011800 23009KT P6SM VCTS SCT050CB BKN250=



000
FTUS44 KMOB 010012 RRA
TAFMOB
TAF
KMOB 010012Z 0100/0124 21005KT P6SM FEW100 BKN250
      TEMPO 0103/0106 VRB15G25KT 5SM -TSRA BKN020CB OVC030
     FM011000 27003KT 5SM BR SCT007 BKN250
     FM011800 23009KT P6SM VCTS SCT050CB BKN250=



000
FTUS44 KMOB 010012 RRA
TAFMOB
TAF
KMOB 010012Z 0100/0124 21005KT P6SM FEW100 BKN250
      TEMPO 0103/0106 VRB15G25KT 5SM -TSRA BKN020CB OVC030
     FM011000 27003KT 5SM BR SCT007 BKN250
     FM011800 23009KT P6SM VCTS SCT050CB BKN250=



000
FTUS44 KMOB 010012 RRA
TAFPNS
TAF
KPNS 010012Z 0100/0124 20007KT P6SM SCT030
      TEMPO 0106/0108 VRB15G25KT 5SM -TSRA BKN020CB OVC030
     FM011500 26008KT P6SM VCSH SCT030 BKN150
     FM011800 23010KT P6SM BKN250 PROB30 0118/0122 6SM TS BKN050CB=



    US Dept of Commerce
    National Oceanic and Atmospheric Administration
    National Weather Service
    1325 East West Highway
    Silver Spring, MD 20910
    Page Author: NWS Internet Services Team
Disclaimer
Information Quality
Credits
Glossary
Privacy Policy
Freedom of Information Act (FOIA)
About Us
Career Opportunities